createdAt,value
2022-08-30T00:00:04.410Z,100.00
2022-08-30T00:03:09.802Z,100.00
2022-08-30T00:06:19.412Z,100.00
2022-08-30T00:09:22.117Z,100.00
2022-08-30T00:12:25.382Z,100.00
2022-08-30T00:15:29.378Z,100.00
2022-08-30T00:18:33.792Z,100.00
2022-08-30T00:21:36.367Z,100.00
2022-08-30T00:24:39.433Z,100.00
2022-08-30T00:27:42.704Z,100.00
2022-08-30T00:30:47.066Z,100.00
2022-08-30T00:33:49.579Z,100.00
2022-08-30T00:36:52.321Z,100.00
2022-08-30T00:39:54.861Z,100.00
2022-08-30T00:42:59.928Z,100.00
2022-08-30T00:46:08.421Z,100.00
2022-08-30T00:49:12.946Z,100.00
2022-08-30T00:52:18.520Z,100.00
2022-08-30T00:55:22.173Z,100.00
2022-08-30T00:58:31.153Z,100.00
2022-08-30T01:01:36.018Z,100.00
2022-08-30T01:04:43.015Z,100.00
2022-08-30T01:07:45.908Z,100.00
2022-08-30T01:10:50.133Z,100.00
2022-08-30T01:13:54.317Z,100.00
2022-08-30T01:16:57.900Z,100.00
2022-08-30T01:20:08.170Z,100.00
2022-08-30T01:23:14.933Z,100.00
2022-08-30T01:26:19.230Z,100.00
2022-08-30T01:29:26.284Z,100.00
2022-08-30T01:32:29.948Z,100.00
2022-08-30T01:35:55.152Z,100.00
2022-08-30T01:38:58.809Z,100.00
2022-08-30T01:42:02.870Z,100.00
2022-08-30T01:45:06.737Z,100.00
2022-08-30T01:48:12.808Z,100.00
2022-08-30T01:51:16.566Z,100.00
2022-08-30T01:54:19.138Z,100.00
2022-08-30T01:57:23.908Z,100.00
2022-08-30T02:00:26.597Z,100.00
2022-08-30T02:03:33.073Z,100.00
2022-08-30T02:06:38.402Z,100.00
2022-08-30T02:09:41.018Z,100.00
2022-08-30T02:12:43.812Z,100.00
2022-08-30T02:15:46.394Z,100.00
2022-08-30T02:18:50.764Z,100.00
2022-08-30T02:21:53.280Z,100.00
2022-08-30T02:24:56.283Z,100.00
2022-08-30T02:27:58.782Z,100.00
2022-08-30T02:31:02.044Z,100.00
2022-08-30T02:34:04.854Z,100.00
2022-08-30T02:37:09.072Z,100.00
2022-08-30T02:40:11.996Z,100.00
2022-08-30T02:43:15.475Z,100.00
2022-08-30T02:46:18.780Z,100.00
2022-08-30T02:49:36.984Z,100.00
2022-08-30T02:52:39.539Z,100.00
2022-08-30T02:55:43.437Z,100.00
2022-08-30T02:58:46.030Z,100.00
2022-08-30T03:01:49.059Z,100.00
2022-08-30T03:04:52.734Z,100.00
2022-08-30T03:07:55.767Z,100.00
2022-08-30T03:10:59.234Z,100.00
2022-08-30T03:14:02.006Z,100.00
2022-08-30T03:17:06.880Z,100.00
2022-08-30T03:20:15.576Z,100.00
2022-08-30T03:23:21.842Z,100.00
2022-08-30T03:26:24.987Z,100.00
2022-08-30T03:29:29.730Z,100.00
2022-08-30T03:32:32.565Z,100.00
2022-08-30T03:35:35.063Z,100.00
2022-08-30T03:38:38.653Z,100.00
2022-08-30T03:41:41.147Z,100.00
2022-08-30T03:44:44.152Z,100.00
2022-08-30T03:47:46.710Z,100.00
2022-08-30T03:50:49.485Z,100.00
2022-08-30T03:53:54.729Z,100.00
2022-08-30T03:56:57.670Z,100.00
2022-08-30T04:00:00.230Z,100.00
2022-08-30T04:03:03.071Z,100.00
2022-08-30T04:06:06.343Z,100.00
2022-08-30T04:09:08.924Z,100.00
2022-08-30T04:12:11.738Z,100.00
2022-08-30T04:15:14.958Z,100.00
2022-08-30T04:18:18.301Z,100.00
2022-08-30T04:21:20.879Z,100.00
2022-08-30T04:24:24.620Z,100.00
2022-08-30T04:27:27.086Z,100.00
2022-08-30T04:30:30.399Z,100.00
2022-08-30T04:33:35.417Z,100.00
2022-08-30T04:36:41.249Z,100.00
2022-08-30T04:39:43.851Z,100.00
2022-08-30T04:42:47.667Z,100.00
2022-08-30T04:45:52.208Z,100.00
2022-08-30T04:48:55.075Z,100.00
2022-08-30T04:51:57.548Z,100.00
2022-08-30T04:55:00.422Z,100.00
2022-08-30T04:58:02.882Z,100.00
2022-08-30T05:01:11.423Z,100.00
2022-08-30T05:04:15.765Z,100.00
2022-08-30T05:07:18.544Z,100.00
2022-08-30T05:10:21.335Z,100.00
2022-08-30T05:13:35.049Z,100.00
2022-08-30T05:16:38.719Z,100.00
2022-08-30T05:19:41.738Z,100.00
2022-08-30T05:22:53.576Z,100.00
2022-08-30T05:25:58.339Z,100.00
2022-08-30T05:29:01.594Z,100.00
2022-08-30T05:32:04.518Z,100.00
2022-08-30T05:35:08.648Z,100.00
2022-08-30T05:38:11.375Z,98.96
2022-08-30T05:41:14.043Z,97.46
2022-08-30T05:44:17.397Z,97.75
2022-08-30T05:47:20.739Z,98.47
2022-08-30T05:50:23.856Z,98.60
2022-08-30T05:53:26.448Z,95.90
2022-08-30T05:56:35.758Z,94.04
2022-08-30T05:59:38.610Z,94.35
2022-08-30T06:02:42.474Z,94.19
2022-08-30T06:08:48.935Z,93.80
2022-08-30T06:11:51.855Z,94.65
2022-08-30T06:14:54.493Z,95.16
2022-08-30T06:17:57.393Z,94.13
2022-08-30T06:21:00.108Z,93.18
2022-08-30T06:24:05.269Z,92.89
2022-08-30T06:27:07.746Z,93.85
2022-08-30T06:30:11.067Z,93.08
2022-08-30T06:33:13.577Z,92.85
2022-08-30T06:36:19.361Z,91.59
2022-08-30T06:39:22.016Z,91.40
2022-08-30T06:42:30.672Z,92.44
2022-08-30T06:45:35.255Z,91.13
2022-08-30T06:48:38.180Z,91.55
2022-08-30T06:51:41.238Z,90.74
2022-08-30T06:54:44.888Z,88.46
2022-08-30T06:57:47.429Z,87.04
2022-08-30T07:00:50.231Z,87.16
2022-08-30T07:03:53.775Z,85.96
2022-08-30T07:06:56.623Z,86.30
2022-08-30T07:09:59.405Z,87.00
2022-08-30T07:13:02.224Z,85.68
2022-08-30T07:16:14.621Z,84.81
2022-08-30T07:19:20.989Z,82.60
2022-08-30T07:22:23.860Z,79.68
2022-08-30T07:25:27.321Z,76.90
2022-08-30T07:28:29.827Z,73.40
2022-08-30T07:31:34.486Z,72.65
2022-08-30T07:34:37.063Z,70.14
2022-08-30T07:37:39.871Z,70.79
2022-08-30T07:40:42.602Z,67.67
2022-08-30T07:43:45.491Z,67.12
2022-08-30T07:46:48.042Z,66.21
2022-08-30T07:49:50.975Z,63.46
2022-08-30T07:52:53.765Z,64.74
2022-08-30T07:55:56.873Z,62.58
2022-08-30T07:58:59.810Z,61.61
2022-08-30T08:02:02.644Z,58.53
2022-08-30T08:05:05.886Z,58.53
2022-08-30T08:08:09.033Z,58.55
2022-08-30T08:11:19.135Z,58.49
2022-08-30T08:14:23.683Z,56.67
2022-08-30T08:17:26.599Z,55.79
2022-08-30T08:20:29.303Z,57.69
2022-08-30T08:23:32.184Z,57.64
2022-08-30T08:26:39.095Z,59.36
2022-08-30T08:29:44.071Z,59.01
2022-08-30T08:32:47.061Z,57.52
2022-08-30T08:35:49.985Z,56.70
2022-08-30T08:38:53.531Z,54.61
2022-08-30T08:42:11.330Z,55.77
2022-08-30T08:45:17.398Z,55.39
2022-08-30T08:48:32.091Z,55.65
2022-08-30T08:52:06.938Z,56.51
2022-08-30T08:55:13.156Z,56.57
2022-08-30T08:58:52.131Z,55.47
2022-08-30T09:02:01.815Z,54.46
2022-08-30T09:05:04.660Z,54.29
2022-08-30T09:08:12.781Z,52.73
2022-08-30T09:11:32.481Z,49.97
2022-08-30T09:14:44.215Z,51.51
2022-08-30T09:18:19.646Z,51.33
2022-08-30T09:21:26.655Z,48.48
2022-08-30T09:24:53.017Z,47.23
2022-08-30T09:28:10.808Z,46.30
2022-08-30T09:31:26.737Z,46.60
2022-08-30T09:34:33.179Z,46.73
2022-08-30T09:37:52.489Z,46.10
2022-08-30T09:40:58.798Z,46.33
2022-08-30T09:44:10.699Z,47.09
2022-08-30T09:47:31.867Z,47.08
2022-08-30T09:50:36.685Z,47.51
2022-08-30T09:54:18.872Z,48.82
2022-08-30T09:57:43.094Z,49.13
2022-08-30T10:01:01.257Z,49.33
2022-08-30T10:04:23.495Z,50.73
2022-08-30T10:07:30.662Z,50.66
2022-08-30T10:11:27.455Z,51.53
2022-08-30T10:14:42.371Z,51.05
2022-08-30T10:18:21.925Z,49.44
2022-08-30T10:21:52.449Z,48.08
2022-08-30T10:25:09.952Z,47.23
2022-08-30T10:28:35.421Z,47.71
2022-08-30T10:31:54.662Z,46.93
2022-08-30T10:35:09.271Z,48.45
2022-08-30T10:38:35.438Z,46.90
2022-08-30T10:41:43.861Z,46.64
2022-08-30T10:44:52.897Z,45.39
2022-08-30T10:48:02.393Z,45.35
2022-08-30T10:51:11.592Z,47.04
2022-08-30T10:54:25.135Z,47.67
2022-08-30T10:57:27.956Z,46.71
2022-08-30T11:00:41.887Z,45.96
2022-08-30T11:04:04.938Z,45.32
2022-08-30T11:07:35.792Z,45.24
2022-08-30T11:10:49.564Z,44.89
2022-08-30T11:13:57.103Z,43.58
2022-08-30T11:17:01.962Z,44.00
2022-08-30T11:20:06.240Z,42.65
2022-08-30T11:23:24.597Z,42.92
2022-08-30T11:26:45.327Z,43.10
2022-08-30T11:29:48.580Z,42.53
2022-08-30T11:33:02.076Z,42.65
2022-08-30T11:36:05.251Z,42.67
2022-08-30T11:39:20.772Z,42.51
2022-08-30T11:42:48.283Z,42.04
2022-08-30T11:45:54.706Z,41.99
2022-08-30T11:49:03.371Z,40.76
2022-08-30T11:52:26.608Z,41.22
2022-08-30T11:55:37.113Z,41.10
2022-08-30T11:58:54.749Z,41.65
2022-08-30T12:01:58.418Z,40.75
2022-08-30T12:05:01.756Z,40.89
2022-08-30T12:08:09.051Z,41.06
2022-08-30T12:11:11.986Z,41.04
2022-08-30T12:14:47.730Z,41.71
2022-08-30T12:18:17.086Z,41.47
2022-08-30T12:21:19.933Z,41.40
2022-08-30T12:24:41.223Z,40.09
2022-08-30T12:27:43.879Z,39.48
2022-08-30T12:30:46.994Z,38.79
2022-08-30T12:33:54.353Z,38.69
2022-08-30T12:37:04.494Z,39.80
2022-08-30T12:40:07.517Z,39.31
2022-08-30T12:43:24.170Z,40.46
2022-08-30T12:46:30.190Z,40.17
2022-08-30T12:49:36.569Z,41.50
2022-08-30T12:52:44.920Z,42.58
2022-08-30T12:55:53.812Z,43.27
2022-08-30T12:59:00.488Z,43.53
2022-08-30T13:02:42.925Z,43.38
2022-08-30T13:05:48.493Z,44.96
2022-08-30T13:08:53.826Z,45.61
2022-08-30T13:11:56.747Z,44.23
2022-08-30T13:15:10.948Z,43.82
2022-08-30T13:18:18.951Z,44.62
2022-08-30T13:21:32.265Z,44.30
2022-08-30T13:24:34.914Z,44.69
2022-08-30T13:27:40.404Z,44.86
2022-08-30T13:30:42.955Z,45.65
2022-08-30T13:33:46.246Z,45.81
2022-08-30T13:36:57.445Z,46.22
2022-08-30T13:40:04.548Z,46.39
2022-08-30T13:43:07.562Z,46.47
2022-08-30T13:46:12.457Z,47.11
2022-08-30T13:49:46.874Z,48.03
2022-08-30T13:52:49.731Z,48.61
2022-08-30T13:55:52.409Z,49.78
2022-08-30T13:58:55.534Z,49.94
2022-08-30T14:02:08.648Z,50.63
2022-08-30T14:05:25.476Z,50.72
2022-08-30T14:08:47.612Z,50.85
2022-08-30T14:11:52.103Z,50.69
2022-08-30T14:14:58.960Z,50.85
2022-08-30T14:18:02.292Z,48.99
2022-08-30T14:21:04.907Z,49.19
2022-08-30T14:24:09.260Z,50.78
2022-08-30T14:27:12.035Z,48.26
2022-08-30T14:30:20.555Z,47.78
2022-08-30T14:33:24.175Z,48.00
2022-08-30T14:36:27.063Z,48.14
2022-08-30T14:39:30.001Z,48.57
2022-08-30T14:42:32.944Z,48.96
2022-08-30T14:45:38.410Z,49.47
2022-08-30T14:48:43.095Z,50.61
2022-08-30T14:51:46.377Z,49.52
2022-08-30T14:54:49.237Z,51.02
2022-08-30T14:57:51.844Z,51.60
2022-08-30T15:00:55.199Z,50.31
2022-08-30T15:03:58.446Z,50.06
2022-08-30T15:07:01.401Z,49.28
2022-08-30T15:10:07.771Z,49.67
2022-08-30T15:13:11.301Z,47.89
2022-08-30T15:16:18.715Z,46.01
2022-08-30T15:19:21.540Z,40.96
2022-08-30T15:22:24.235Z,37.36
2022-08-30T15:25:27.530Z,33.57
2022-08-30T15:28:30.287Z,35.29
2022-08-30T15:31:34.882Z,38.01
2022-08-30T15:34:37.360Z,40.59
2022-08-30T15:37:40.339Z,43.91
2022-08-30T15:40:44.645Z,44.76
2022-08-30T15:43:47.976Z,45.77
2022-08-30T15:46:50.959Z,47.65
2022-08-30T15:49:56.237Z,49.07
2022-08-30T15:52:58.822Z,49.17
2022-08-30T15:56:01.727Z,52.46
2022-08-30T15:59:04.311Z,47.96
2022-08-30T16:02:09.873Z,44.70
2022-08-30T16:05:12.762Z,44.60
2022-08-30T16:08:15.348Z,45.41
2022-08-30T16:11:24.768Z,46.28
2022-08-30T16:14:27.734Z,47.04
2022-08-30T16:17:30.568Z,46.02
2022-08-30T16:20:33.245Z,40.77
2022-08-30T16:23:37.604Z,36.27
2022-08-30T16:26:41.388Z,33.36
2022-08-30T16:29:44.657Z,32.06
2022-08-30T16:32:49.288Z,31.50
2022-08-30T16:35:53.900Z,32.51
2022-08-30T16:38:58.272Z,33.90
2022-08-30T16:42:03.346Z,37.36
2022-08-30T16:45:10.458Z,40.41
2022-08-30T16:48:15.518Z,41.53
2022-08-30T16:51:24.530Z,43.14
2022-08-30T16:54:28.871Z,42.75
2022-08-30T16:57:31.460Z,43.19
2022-08-30T17:00:36.675Z,44.28
2022-08-30T17:03:40.311Z,45.15
2022-08-30T17:06:43.256Z,44.97
2022-08-30T17:09:45.952Z,44.71
2022-08-30T17:12:49.980Z,44.74
2022-08-30T17:15:52.771Z,45.46
2022-08-30T17:19:00.582Z,46.46
2022-08-30T17:22:04.005Z,46.95
2022-08-30T17:25:07.815Z,47.54
2022-08-30T17:28:11.108Z,47.68
2022-08-30T17:31:14.893Z,47.35
2022-08-30T17:34:17.745Z,48.38
2022-08-30T17:37:20.857Z,49.00
2022-08-30T17:40:23.994Z,49.69
2022-08-30T17:43:27.432Z,50.36
2022-08-30T17:46:32.760Z,50.90
2022-08-30T17:49:35.783Z,51.78
2022-08-30T17:52:38.716Z,51.93
2022-08-30T17:55:48.426Z,51.72
2022-08-30T17:58:51.047Z,52.42
2022-08-30T18:01:56.105Z,52.31
2022-08-30T18:05:00.532Z,52.58
2022-08-30T18:08:03.760Z,52.90
2022-08-30T18:11:07.879Z,53.19
2022-08-30T18:14:12.708Z,53.70
2022-08-30T18:17:16.324Z,54.05
2022-08-30T18:20:19.078Z,54.29
2022-08-30T18:23:25.232Z,54.38
2022-08-30T18:26:27.953Z,54.67
2022-08-30T18:29:31.605Z,54.82
2022-08-30T18:32:36.246Z,55.00
2022-08-30T18:35:47.570Z,55.32
2022-08-30T18:38:51.146Z,55.75
2022-08-30T18:41:57.002Z,55.62
2022-08-30T18:44:59.704Z,55.31
2022-08-30T18:48:15.386Z,55.12
2022-08-30T18:51:20.453Z,55.27
2022-08-30T18:54:24.728Z,54.61
2022-08-30T18:57:27.422Z,54.57
2022-08-30T19:00:32.027Z,54.78
2022-08-30T19:03:35.657Z,54.57
2022-08-30T19:06:43.055Z,54.93
2022-08-30T19:09:46.777Z,55.64
2022-08-30T19:12:50.516Z,55.74
2022-08-30T19:15:54.869Z,55.89
2022-08-30T19:18:59.361Z,56.15
2022-08-30T19:22:01.936Z,56.90
2022-08-30T19:25:08.415Z,57.36
2022-08-30T19:28:11.343Z,58.01
2022-08-30T19:31:14.222Z,58.46
2022-08-30T19:34:17.538Z,59.28
2022-08-30T19:37:20.726Z,59.63
2022-08-30T19:40:23.323Z,60.10
2022-08-30T19:43:27.783Z,60.15
2022-08-30T19:46:33.491Z,61.65
2022-08-30T19:49:36.820Z,62.01
2022-08-30T19:52:40.208Z,61.58
2022-08-30T19:55:43.139Z,61.90
2022-08-30T19:58:46.448Z,61.88
2022-08-30T20:01:49.336Z,61.67
2022-08-30T20:04:53.195Z,62.01
2022-08-30T20:07:58.215Z,62.38
2022-08-30T20:11:01.291Z,62.77
2022-08-30T20:14:04.210Z,63.03
2022-08-30T20:17:07.289Z,63.60
2022-08-30T20:20:18.129Z,64.70
2022-08-30T20:23:25.349Z,63.98
2022-08-30T20:26:33.512Z,63.81
2022-08-30T20:29:37.980Z,64.50
2022-08-30T20:32:44.834Z,64.07
2022-08-30T20:35:49.489Z,64.35
2022-08-30T20:38:52.529Z,64.88
2022-08-30T20:41:55.440Z,64.72
2022-08-30T20:44:58.853Z,65.27
2022-08-30T20:48:03.189Z,65.04
2022-08-30T20:51:10.855Z,66.14
2022-08-30T20:54:13.716Z,65.46
2022-08-30T20:57:19.319Z,65.22
2022-08-30T21:00:25.413Z,65.58
2022-08-30T21:03:29.160Z,65.75
2022-08-30T21:06:37.593Z,65.79
2022-08-30T21:09:40.179Z,66.06
2022-08-30T21:12:43.407Z,66.87
2022-08-30T21:15:52.292Z,67.25
2022-08-30T21:18:55.789Z,66.95
2022-08-30T21:21:58.387Z,67.09
2022-08-30T21:25:02.306Z,67.36
2022-08-30T21:28:04.844Z,68.36
2022-08-30T21:31:11.681Z,67.96
2022-08-30T21:34:17.584Z,67.46
2022-08-30T21:37:21.352Z,67.39
2022-08-30T21:40:23.909Z,69.98
2022-08-30T21:43:26.776Z,69.92
2022-08-30T21:46:32.209Z,70.71
2022-08-30T21:49:36.075Z,72.92
2022-08-30T21:52:38.682Z,73.27
2022-08-30T21:55:41.424Z,73.83
2022-08-30T21:58:46.546Z,74.29
2022-08-30T22:01:50.038Z,75.24
2022-08-30T22:04:52.880Z,75.59
2022-08-30T22:07:55.462Z,75.30
2022-08-30T22:10:58.486Z,75.90
2022-08-30T22:14:01.698Z,76.34
2022-08-30T22:17:04.612Z,76.49
2022-08-30T22:20:07.888Z,75.94
2022-08-30T22:23:10.673Z,74.37
2022-08-30T22:26:22.671Z,74.53
2022-08-30T22:29:25.509Z,75.59
2022-08-30T22:32:28.610Z,75.38
2022-08-30T22:35:31.390Z,76.23
2022-08-30T22:38:34.077Z,76.05
2022-08-30T22:41:38.060Z,76.84
2022-08-30T22:44:40.585Z,77.67
2022-08-30T22:47:43.400Z,77.79
2022-08-30T22:50:46.739Z,75.56
2022-08-30T22:53:50.263Z,76.57
2022-08-30T22:56:52.689Z,78.22
2022-08-30T22:59:55.628Z,78.42
2022-08-30T23:02:58.087Z,80.58
2022-08-30T23:06:01.222Z,80.97
2022-08-30T23:09:05.711Z,81.49
2022-08-30T23:12:08.475Z,81.53
2022-08-30T23:15:14.425Z,80.86
2022-08-30T23:18:17.198Z,81.62
2022-08-30T23:21:25.435Z,82.43
2022-08-30T23:24:49.099Z,82.90
2022-08-30T23:28:10.147Z,84.25
2022-08-30T23:31:34.580Z,83.87
2022-08-30T23:34:55.641Z,85.65
2022-08-30T23:38:20.632Z,86.45
2022-08-30T23:41:41.557Z,87.17
2022-08-30T23:45:03.020Z,88.74
2022-08-30T23:48:24.403Z,88.18
2022-08-30T23:51:45.925Z,87.83
2022-08-30T23:55:07.261Z,88.46
2022-08-30T23:58:28.691Z,87.78
